createdAt,value
2022-08-10T00:00:29.448Z,98224.05
2022-08-10T00:01:44.454Z,98225.52
2022-08-10T00:03:00.795Z,98223.68
2022-08-10T00:04:09.058Z,98225.95
2022-08-10T00:05:24.562Z,98227.05
2022-08-10T00:06:32.214Z,98222.27
2022-08-10T00:07:40.211Z,98224.11
2022-08-10T00:08:48.713Z,98218.27
2022-08-10T00:09:56.808Z,98226.33
2022-08-10T00:11:05.351Z,98221.46
2022-08-10T00:12:22.914Z,98223.41
2022-08-10T00:13:51.612Z,98223.05
2022-08-10T00:15:01.770Z,98222.84
2022-08-10T00:16:08.988Z,98219.83
2022-08-10T00:17:16.198Z,98220.46
2022-08-10T00:18:34.282Z,98226.54
2022-08-10T00:20:03.477Z,98226.94
2022-08-10T00:21:12.004Z,98226.11
2022-08-10T00:22:19.567Z,98232.61
2022-08-10T00:23:26.975Z,98224.27
2022-08-10T00:24:35.217Z,98227.54
2022-08-10T00:25:44.262Z,98231.95
2022-08-10T00:28:01.389Z,98227.08
2022-08-10T00:28:29.136Z,98231.30
2022-08-10T00:29:37.944Z,98228.23
2022-08-10T00:30:46.218Z,98224.95
2022-08-10T00:31:58.615Z,98228.42
2022-08-10T00:33:07.146Z,98224.55
2022-08-10T00:34:14.096Z,98223.69
2022-08-10T00:35:21.718Z,98225.60
2022-08-10T00:36:28.884Z,98224.73
2022-08-10T00:37:39.875Z,98224.55
2022-08-10T00:38:46.906Z,98228.23
2022-08-10T00:39:54.041Z,98225.63
2022-08-10T00:41:01.726Z,98223.10
2022-08-10T00:42:10.032Z,98224.10
2022-08-10T00:43:23.494Z,98220.30
2022-08-10T00:44:31.645Z,98223.53
2022-08-10T00:45:40.628Z,98222.82
2022-08-10T00:46:49.060Z,98223.57
2022-08-10T00:47:58.221Z,98222.65
2022-08-10T00:49:06.939Z,98221.21
2022-08-10T00:50:14.215Z,98223.77
2022-08-10T00:51:22.091Z,98220.93
2022-08-10T00:52:48.912Z,98223.40
2022-08-10T00:53:57.297Z,98232.99
2022-08-10T00:55:07.277Z,98238.96
2022-08-10T00:57:12.440Z,98239.77
2022-08-10T00:57:42.135Z,98239.06
2022-08-10T00:58:49.338Z,98242.89
2022-08-10T00:59:59.213Z,98241.17
2022-08-10T01:01:07.513Z,98242.04
2022-08-10T01:02:18.972Z,98245.86
2022-08-10T01:04:36.312Z,98244.51
2022-08-10T01:04:59.719Z,98240.72
2022-08-10T01:06:20.117Z,98240.46
2022-08-10T01:07:50.768Z,98239.69
2022-08-10T01:09:15.417Z,98242.98
2022-08-10T01:10:28.245Z,98235.98
2022-08-10T01:12:27.638Z,98237.48
2022-08-10T01:13:33.060Z,98237.57
2022-08-10T01:15:10.076Z,98238.69
2022-08-10T01:16:34.586Z,98236.86
2022-08-10T01:17:50.288Z,98237.33
2022-08-10T01:19:22.348Z,98236.79
2022-08-10T01:20:38.505Z,98234.72
2022-08-10T01:22:05.516Z,98234.30
2022-08-10T01:23:42.053Z,98237.75
2022-08-10T01:25:21.772Z,98240.31
2022-08-10T01:26:49.373Z,98239.98
2022-08-10T01:27:59.534Z,98244.09
2022-08-10T01:29:34.838Z,98245.28
2022-08-10T01:30:43.005Z,98248.38
2022-08-10T01:31:53.322Z,98249.29
2022-08-10T01:33:12.114Z,98251.95
2022-08-10T01:34:25.460Z,98247.64
2022-08-10T01:35:49.137Z,98248.29
2022-08-10T01:37:02.065Z,98249.80
2022-08-10T01:38:14.173Z,98252.05
2022-08-10T01:39:32.640Z,98254.65
2022-08-10T01:40:42.337Z,98256.88
2022-08-10T01:41:51.163Z,98260.25
2022-08-10T01:43:08.370Z,98262.08
2022-08-10T01:44:20.503Z,98262.45
2022-08-10T01:45:28.734Z,98263.97
2022-08-10T01:46:58.341Z,98263.89
2022-08-10T01:48:24.927Z,98267.70
2022-08-10T01:49:32.900Z,98271.58
2022-08-10T01:50:59.652Z,98274.90
2022-08-10T01:52:08.876Z,98275.64
2022-08-10T01:53:28.390Z,98275.73
2022-08-10T01:54:49.300Z,98280.48
2022-08-10T01:56:01.328Z,98281.10
2022-08-10T01:57:09.540Z,98278.77
2022-08-10T01:58:17.003Z,98281.10
2022-08-10T01:59:39.634Z,98285.48
2022-08-10T02:00:47.901Z,98285.24
2022-08-10T02:01:58.349Z,98287.56
2022-08-10T02:03:08.327Z,98290.60
2022-08-10T02:04:17.723Z,98286.21
2022-08-10T02:05:28.086Z,98287.73
2022-08-10T02:06:50.041Z,98290.23
2022-08-10T02:07:59.013Z,98293.36
2022-08-10T02:09:10.755Z,98294.79
2022-08-10T02:10:20.360Z,98297.98
2022-08-10T02:11:30.611Z,98300.73
2022-08-10T02:12:59.576Z,98306.16
2022-08-10T02:14:08.108Z,98306.55
2022-08-10T02:15:23.652Z,98308.72
2022-08-10T02:16:31.959Z,98312.31
2022-08-10T02:17:58.034Z,98310.65
2022-08-10T02:19:11.938Z,98312.27
2022-08-10T02:20:22.076Z,98313.46
2022-08-10T02:21:31.621Z,98316.29
2022-08-10T02:22:40.990Z,98316.84
2022-08-10T02:23:59.694Z,98323.40
2022-08-10T02:25:42.001Z,98320.18
2022-08-10T02:26:40.996Z,98324.11
2022-08-10T02:27:49.163Z,98325.81
2022-08-10T02:28:57.630Z,98327.11
2022-08-10T02:30:08.248Z,98326.61
2022-08-10T02:31:17.465Z,98329.23
2022-08-10T02:32:36.479Z,98331.00
2022-08-10T02:33:57.559Z,98337.58
2022-08-10T02:35:18.614Z,98339.16
2022-08-10T02:36:33.864Z,98341.25
2022-08-10T02:37:46.666Z,98348.05
2022-08-10T02:39:01.012Z,98351.19
2022-08-10T02:40:09.956Z,98354.44
2022-08-10T02:45:13.777Z,98353.83
2022-08-10T02:45:22.071Z,98358.19
2022-08-10T02:45:26.954Z,98361.50
2022-08-10T02:46:44.551Z,98362.80
2022-08-10T02:48:05.609Z,98366.85
2022-08-10T02:49:28.426Z,98372.31
2022-08-10T02:50:38.196Z,98376.94
2022-08-10T02:52:08.979Z,98376.20
2022-08-10T02:53:54.879Z,98377.07
2022-08-10T02:55:17.314Z,98381.58
2022-08-10T02:56:54.125Z,98386.27
2022-08-10T02:58:15.298Z,98387.77
2022-08-10T02:59:53.200Z,98388.43
2022-08-10T03:01:06.658Z,98391.45
2022-08-10T03:02:17.215Z,98392.14
2022-08-10T03:03:31.808Z,98392.48
2022-08-10T03:04:56.098Z,98392.06
2022-08-10T03:06:11.285Z,98394.22
2022-08-10T03:07:43.559Z,98395.94
2022-08-10T03:08:49.656Z,98399.00
2022-08-10T03:09:58.197Z,98398.39
2022-08-10T03:11:06.844Z,98399.15
2022-08-10T03:12:37.841Z,98400.33
2022-08-10T03:13:44.799Z,98394.96
2022-08-10T03:14:53.235Z,98395.23
2022-08-10T03:16:03.062Z,98395.89
2022-08-10T03:17:11.539Z,98397.98
2022-08-10T03:18:20.117Z,98398.95
2022-08-10T03:20:35.614Z,98398.71
2022-08-10T03:20:56.686Z,98403.39
2022-08-10T03:22:06.217Z,98405.13
2022-08-10T03:23:25.653Z,98405.56
2022-08-10T03:24:33.976Z,98405.00
2022-08-10T03:25:54.229Z,98411.13
2022-08-10T03:27:03.484Z,98413.95
2022-08-10T03:28:10.917Z,98415.49
2022-08-10T03:29:26.501Z,98416.15
2022-08-10T03:30:34.738Z,98418.84
2022-08-10T03:31:43.026Z,98425.34
2022-08-10T03:32:51.599Z,98426.16
2022-08-10T03:34:04.955Z,98432.68
2022-08-10T03:35:30.155Z,98433.52
2022-08-10T03:36:39.932Z,98434.79
2022-08-10T03:37:59.084Z,98433.25
2022-08-10T03:39:08.955Z,98434.32
2022-08-10T03:40:17.887Z,98432.57
2022-08-10T03:41:53.251Z,98432.30
2022-08-10T03:43:03.531Z,98437.48
2022-08-10T03:44:14.976Z,98439.05
2022-08-10T03:45:23.953Z,98441.11
2022-08-10T03:46:32.006Z,98447.53
2022-08-10T03:47:44.315Z,98451.53
2022-08-10T03:48:54.002Z,98455.10
2022-08-10T03:50:03.834Z,98456.69
2022-08-10T03:51:30.703Z,98461.65
2022-08-10T03:52:38.637Z,98463.92
2022-08-10T03:54:05.350Z,98462.77
2022-08-10T03:55:28.762Z,98466.92
2022-08-10T03:56:45.223Z,98466.34
2022-08-10T03:57:53.710Z,98466.14
2022-08-10T03:59:02.632Z,98466.33
2022-08-10T04:00:11.464Z,98468.67
2022-08-10T04:01:20.158Z,98471.73
2022-08-10T04:02:49.337Z,98472.34
2022-08-10T04:04:11.661Z,98476.44
2022-08-10T04:05:22.996Z,98478.29
2022-08-10T04:06:31.914Z,98484.44
2022-08-10T04:07:39.926Z,98483.29
2022-08-10T04:08:48.454Z,98485.27
2022-08-10T04:09:58.830Z,98487.70
2022-08-10T04:11:07.634Z,98492.29
2022-08-10T04:12:15.735Z,98495.52
2022-08-10T04:13:24.885Z,98505.10
2022-08-10T04:14:38.745Z,98509.11
2022-08-10T04:15:59.149Z,98508.41
2022-08-10T04:17:12.093Z,98510.58
2022-08-10T04:18:21.842Z,98513.56
2022-08-10T04:19:29.867Z,98515.23
2022-08-10T04:20:47.425Z,98512.80
2022-08-10T04:22:08.005Z,98517.79
2022-08-10T04:23:27.733Z,98518.41
2022-08-10T04:24:37.244Z,98522.91
2022-08-10T04:25:45.731Z,98524.65
2022-08-10T04:26:53.708Z,98527.45
2022-08-10T04:28:03.363Z,98527.90
2022-08-10T04:29:12.123Z,98528.54
2022-08-10T04:30:22.883Z,98529.84
2022-08-10T04:31:30.008Z,98531.73
2022-08-10T04:32:38.196Z,98536.01
2022-08-10T04:33:49.554Z,98540.66
2022-08-10T04:34:57.518Z,98546.87
2022-08-10T04:36:06.846Z,98550.02
2022-08-10T04:37:14.804Z,98553.84
2022-08-10T04:38:22.589Z,98559.48
2022-08-10T04:39:30.716Z,98559.07
2022-08-10T04:40:39.169Z,98561.56
2022-08-10T04:41:47.734Z,98561.96
2022-08-10T04:43:01.323Z,98562.15
2022-08-10T04:44:12.398Z,98562.38
2022-08-10T04:45:20.316Z,98560.78
2022-08-10T04:46:42.447Z,98560.58
2022-08-10T04:48:00.727Z,98562.13
2022-08-10T04:49:53.885Z,98564.39
2022-08-10T04:50:40.374Z,98564.06
2022-08-10T04:51:48.885Z,98567.05
2022-08-10T04:52:57.389Z,98569.44
2022-08-10T04:54:07.200Z,98569.12
2022-08-10T04:55:15.886Z,98573.98
2022-08-10T04:56:31.691Z,98573.55
2022-08-10T04:57:41.053Z,98577.85
2022-08-10T04:58:49.072Z,98582.98
2022-08-10T05:00:00.738Z,98582.92
2022-08-10T05:01:09.965Z,98588.11
2022-08-10T05:02:29.605Z,98591.70
2022-08-10T05:04:36.676Z,98591.74
2022-08-10T05:05:09.805Z,98594.96
2022-08-10T05:06:17.379Z,98593.09
2022-08-10T05:07:25.244Z,98593.97
2022-08-10T05:08:33.369Z,98594.80
2022-08-10T05:10:00.409Z,98593.67
2022-08-10T05:11:10.504Z,98585.45
2022-08-10T05:12:35.755Z,98588.38
2022-08-10T05:13:45.389Z,98589.05
2022-08-10T05:14:55.499Z,98590.43
2022-08-10T05:16:03.574Z,98590.05
2022-08-10T05:17:12.139Z,98590.77
2022-08-10T05:18:20.391Z,98591.81
2022-08-10T05:20:02.848Z,98590.92
2022-08-10T05:20:59.242Z,98589.33
2022-08-10T05:22:07.474Z,98586.36
2022-08-10T05:23:15.516Z,98591.45
2022-08-10T05:24:23.138Z,98588.11
2022-08-10T05:25:32.997Z,98591.75
2022-08-10T05:27:00.242Z,98592.42
2022-08-10T05:28:14.642Z,98595.33
2022-08-10T05:29:22.363Z,98598.55
2022-08-10T05:30:30.208Z,98600.59
2022-08-10T05:31:38.453Z,98600.85
2022-08-10T05:32:57.508Z,98603.98
2022-08-10T05:34:20.270Z,98607.63
2022-08-10T05:35:56.403Z,98604.91
2022-08-10T05:36:58.066Z,98608.88
2022-08-10T05:38:14.226Z,98607.90
2022-08-10T05:39:30.369Z,98606.80
2022-08-10T05:40:47.352Z,98605.63
2022-08-10T05:41:56.295Z,98600.91
2022-08-10T05:43:10.053Z,98594.73
2022-08-10T05:44:18.924Z,98594.18
2022-08-10T05:45:29.070Z,98591.91
2022-08-10T05:46:37.035Z,98591.08
2022-08-10T05:48:41.732Z,98591.14
2022-08-10T05:49:13.396Z,98595.46
2022-08-10T05:50:28.705Z,98594.19
2022-08-10T05:51:44.421Z,98596.84
2022-08-10T05:53:00.619Z,98599.71
2022-08-10T05:54:16.535Z,98601.30
2022-08-10T05:55:24.908Z,98606.64
2022-08-10T05:56:53.650Z,98605.14
2022-08-10T05:58:02.933Z,98604.09
2022-08-10T06:00:12.601Z,98603.48
2022-08-10T06:00:50.249Z,98608.38
2022-08-10T06:02:31.710Z,98607.75
2022-08-10T06:03:32.248Z,98610.02
2022-08-10T06:04:43.947Z,98608.84
2022-08-10T06:05:52.108Z,98608.38
2022-08-10T06:07:01.539Z,98609.14
2022-08-10T06:08:19.654Z,98608.19
2022-08-10T06:09:27.810Z,98611.27
2022-08-10T06:10:36.865Z,98619.30
2022-08-10T06:12:27.902Z,98619.88
2022-08-10T06:14:13.239Z,98617.39
2022-08-10T06:15:51.588Z,98614.77
2022-08-10T06:16:50.807Z,98617.34
2022-08-10T06:18:02.036Z,98617.67
2022-08-10T06:19:10.515Z,98616.11
2022-08-10T06:20:19.122Z,98619.39
2022-08-10T06:21:26.103Z,98620.25
2022-08-10T06:22:36.894Z,98621.77
2022-08-10T06:23:44.071Z,98617.73
2022-08-10T06:25:21.428Z,98617.32
2022-08-10T06:26:21.381Z,98620.77
2022-08-10T06:27:34.795Z,98621.57
2022-08-10T06:28:52.783Z,98619.77
2022-08-10T06:30:20.575Z,98621.88
2022-08-10T06:31:32.775Z,98621.48
2022-08-10T06:32:59.514Z,98623.89
2022-08-10T06:34:07.973Z,98624.58
2022-08-10T06:35:15.586Z,98625.79
2022-08-10T06:36:23.706Z,98626.33
2022-08-10T06:37:31.816Z,98626.52
2022-08-10T06:38:41.276Z,98628.64
2022-08-10T06:39:50.322Z,98628.01
2022-08-10T06:40:59.206Z,98629.54
2022-08-10T06:42:17.715Z,98629.73
2022-08-10T06:43:26.673Z,98634.95
2022-08-10T06:44:37.315Z,98635.25
2022-08-10T06:46:07.915Z,98638.02
2022-08-10T06:47:23.172Z,98638.73
2022-08-10T06:48:36.759Z,98639.70
2022-08-10T06:49:45.817Z,98645.95
2022-08-10T06:51:04.974Z,98647.41
2022-08-10T06:52:17.683Z,98648.27
2022-08-10T06:53:52.385Z,98648.23
2022-08-10T06:54:58.091Z,98648.38
2022-08-10T06:56:13.075Z,98651.98
2022-08-10T06:57:20.623Z,98647.18
2022-08-10T06:58:30.887Z,98646.81
2022-08-10T06:59:49.009Z,98647.18
2022-08-10T07:00:57.966Z,98652.75
2022-08-10T07:02:16.721Z,98647.77
2022-08-10T07:03:28.484Z,98647.09
2022-08-10T07:04:45.920Z,98644.07
2022-08-10T07:05:52.877Z,98642.28
2022-08-10T07:07:00.957Z,98645.05
2022-08-10T07:08:09.691Z,98644.54
2022-08-10T07:09:19.863Z,98646.61
2022-08-10T07:10:45.417Z,98642.73
2022-08-10T07:11:53.721Z,98646.23
2022-08-10T07:13:03.055Z,98646.98
2022-08-10T07:14:16.843Z,98648.98
2022-08-10T07:15:58.143Z,98649.27
2022-08-10T07:16:57.960Z,98646.29
2022-08-10T07:18:08.010Z,98644.23
2022-08-10T07:19:16.489Z,98644.03
2022-08-10T07:20:24.407Z,98640.95
2022-08-10T07:21:32.464Z,98639.94
2022-08-10T07:23:22.635Z,98641.30
2022-08-10T07:24:14.720Z,98641.36
2022-08-10T07:25:27.970Z,98637.26
2022-08-10T07:26:36.638Z,98636.70
2022-08-10T07:27:58.935Z,98637.33
2022-08-10T07:29:26.784Z,98638.91
2022-08-10T07:30:41.289Z,98637.07
2022-08-10T07:31:56.153Z,98641.15
2022-08-10T07:33:05.324Z,98642.71
2022-08-10T07:34:13.184Z,98644.17
2022-08-10T07:35:41.701Z,98644.14
2022-08-10T07:36:53.454Z,98644.45
2022-08-10T07:38:00.624Z,98645.91
2022-08-10T07:39:11.584Z,98642.21
2022-08-10T07:40:19.726Z,98644.01
2022-08-10T07:41:26.915Z,98644.45
2022-08-10T07:42:34.822Z,98643.09
2022-08-10T07:43:42.034Z,98639.75
2022-08-10T07:44:49.165Z,98640.83
2022-08-10T07:45:56.534Z,98642.90
2022-08-10T07:47:06.134Z,98639.86
2022-08-10T07:48:29.461Z,98639.17
2022-08-10T07:49:38.728Z,98639.64
2022-08-10T07:50:48.491Z,98638.14
2022-08-10T07:51:57.479Z,98637.67
2022-08-10T07:53:06.010Z,98639.29
2022-08-10T07:54:17.231Z,98638.16
2022-08-10T07:56:03.836Z,98637.04
2022-08-10T07:56:56.639Z,98639.89
2022-08-10T07:58:05.074Z,98636.89
2022-08-10T07:59:16.507Z,98639.73
2022-08-10T08:00:24.527Z,98636.25
2022-08-10T08:01:34.482Z,98637.20
2022-08-10T08:02:54.282Z,98637.67
2022-08-10T08:04:05.542Z,98637.60
2022-08-10T08:05:27.602Z,98635.02
2022-08-10T08:06:46.531Z,98636.48
2022-08-10T08:07:54.263Z,98633.69
2022-08-10T08:09:02.203Z,98635.65
2022-08-10T08:10:10.671Z,98634.37
2022-08-10T08:11:25.494Z,98638.91
2022-08-10T08:12:37.143Z,98637.52
2022-08-10T08:13:46.943Z,98633.75
2022-08-10T08:14:55.492Z,98633.52
2022-08-10T08:16:20.144Z,98636.27
2022-08-10T08:17:36.378Z,98636.08
2022-08-10T08:19:03.702Z,98631.61
2022-08-10T08:20:11.867Z,98630.71
2022-08-10T08:24:05.291Z,98632.21
2022-08-10T08:24:10.247Z,98631.00
2022-08-10T08:24:33.344Z,98631.10
2022-08-10T08:25:42.452Z,98630.80
2022-08-10T08:26:52.258Z,98630.39
2022-08-10T08:28:02.908Z,98634.60
2022-08-10T08:29:10.571Z,98635.23
2022-08-10T08:30:26.686Z,98638.39
2022-08-10T08:31:35.601Z,98637.55
2022-08-10T08:32:51.384Z,98639.84
2022-08-10T08:34:00.563Z,98639.13
2022-08-10T08:35:10.372Z,98638.40
2022-08-10T08:36:18.872Z,98641.38
2022-08-10T08:38:31.073Z,98644.37
2022-08-10T08:38:54.889Z,98648.86
2022-08-10T08:40:03.443Z,98648.70
2022-08-10T08:41:38.583Z,98648.00
2022-08-10T08:43:03.946Z,98647.48
2022-08-10T08:44:58.276Z,98648.21
2022-08-10T08:46:20.815Z,98645.04
2022-08-10T08:48:03.557Z,98643.83
2022-08-10T08:49:10.401Z,98649.33
2022-08-10T08:50:32.874Z,98649.04
2022-08-10T08:52:06.225Z,98651.05
2022-08-10T08:54:03.625Z,98652.24
2022-08-10T08:56:01.403Z,98649.45
2022-08-10T08:57:10.474Z,98645.72
2022-08-10T08:58:50.816Z,98647.63
2022-08-10T09:00:12.764Z,98647.98
2022-08-10T09:01:51.436Z,98646.74
2022-08-10T09:03:28.282Z,98652.09
2022-08-10T09:04:57.921Z,98649.22
2022-08-10T09:06:42.226Z,98650.59
2022-08-10T09:08:10.673Z,98647.60
2022-08-10T09:09:36.045Z,98645.13
2022-08-10T09:11:09.168Z,98642.11
2022-08-10T09:12:42.574Z,98637.71
2022-08-10T09:13:55.753Z,98638.05
2022-08-10T09:15:50.794Z,98634.20
2022-08-10T09:17:18.753Z,98635.94
2022-08-10T09:19:19.582Z,98640.03
2022-08-10T09:20:47.423Z,98639.21
2022-08-10T09:22:17.303Z,98638.23
2022-08-10T09:24:01.718Z,98639.63
2022-08-10T09:25:02.594Z,98638.83
2022-08-10T09:26:19.338Z,98640.48
2022-08-10T09:27:38.477Z,98640.08
2022-08-10T09:29:04.574Z,98635.61
2022-08-10T09:30:17.694Z,98638.46
2022-08-10T09:31:26.195Z,98640.40
2022-08-10T09:36:15.282Z,98637.20
2022-08-10T09:36:25.146Z,98636.98
2022-08-10T09:36:26.380Z,98636.84
2022-08-10T09:38:02.574Z,98637.27
2022-08-10T09:40:12.632Z,98636.56
2022-08-10T09:41:27.777Z,98634.80
2022-08-10T09:43:25.854Z,98636.48
2022-08-10T09:44:58.879Z,98636.80
2022-08-10T09:46:27.569Z,98635.45
2022-08-10T09:48:02.764Z,98636.54
2022-08-10T09:49:53.344Z,98635.77
2022-08-10T09:51:45.459Z,98635.83
2022-08-10T09:53:39.947Z,98637.36
2022-08-10T09:55:00.585Z,98636.48
2022-08-10T09:56:22.246Z,98635.13
2022-08-10T09:57:57.049Z,98631.27
2022-08-10T09:59:27.175Z,98632.55
2022-08-10T10:02:03.835Z,98629.92
2022-08-10T10:03:19.699Z,98632.66
2022-08-10T10:05:01.235Z,98632.38
2022-08-10T10:06:17.996Z,98630.75
2022-08-10T10:07:29.947Z,98629.36
2022-08-10T10:09:10.095Z,98629.31
2022-08-10T10:10:48.680Z,98629.85
2022-08-10T10:12:07.686Z,98630.50
2022-08-10T10:14:02.596Z,98633.57
2022-08-10T10:16:00.471Z,98634.10
2022-08-10T10:17:18.000Z,98636.02
2022-08-10T10:18:24.992Z,98636.08
2022-08-10T10:19:50.942Z,98637.34
2022-08-10T10:21:55.119Z,98636.51
2022-08-10T10:23:21.046Z,98638.00
2022-08-10T10:24:43.446Z,98640.54
2022-08-10T10:26:05.000Z,98645.04
2022-08-10T10:27:54.708Z,98645.76
2022-08-10T10:29:56.290Z,98647.05
2022-08-10T10:31:04.389Z,98644.64
2022-08-10T10:33:01.480Z,98643.80
2022-08-10T10:34:15.918Z,98641.16
2022-08-10T10:35:43.311Z,98641.84
2022-08-10T10:36:50.440Z,98643.31
2022-08-10T10:38:02.963Z,98640.07
2022-08-10T10:39:11.224Z,98638.50
2022-08-10T10:40:18.342Z,98639.92
2022-08-10T10:42:03.637Z,98637.98
2022-08-10T10:43:37.207Z,98635.84
2022-08-10T10:44:52.319Z,98639.30
2022-08-10T10:46:23.154Z,98637.02
2022-08-10T10:47:58.681Z,98638.02
2022-08-10T10:49:09.361Z,98638.58
2022-08-10T10:50:21.105Z,98640.45
2022-08-10T10:51:51.605Z,98640.08
2022-08-10T10:53:46.652Z,98639.09
2022-08-10T10:55:26.885Z,98639.30
2022-08-10T10:57:00.158Z,98640.91
2022-08-10T10:58:28.305Z,98635.42
2022-08-10T11:00:06.358Z,98632.96
2022-08-10T11:01:40.751Z,98627.25
2022-08-10T11:03:09.269Z,98623.73
2022-08-10T11:04:39.113Z,98621.56
2022-08-10T11:06:18.149Z,98622.14
2022-08-10T11:08:00.677Z,98626.69
2022-08-10T11:09:12.425Z,98624.25
2022-08-10T11:11:25.336Z,98624.88
2022-08-10T11:12:51.060Z,98628.39
2022-08-10T11:14:25.674Z,98629.88
2022-08-10T11:15:58.253Z,98627.77
2022-08-10T11:17:17.031Z,98624.11
2022-08-10T11:18:45.862Z,98621.39
2022-08-10T11:20:19.674Z,98623.35
2022-08-10T11:21:43.471Z,98622.29
2022-08-10T11:23:27.789Z,98622.86
2022-08-10T11:24:50.262Z,98622.80
2022-08-10T11:26:17.841Z,98623.30
2022-08-10T11:27:28.742Z,98622.59
2022-08-10T11:28:39.372Z,98620.86
2022-08-10T11:30:09.063Z,98618.60
2022-08-10T11:31:29.702Z,98619.41
2022-08-10T11:32:59.255Z,98620.30
2022-08-10T11:34:48.751Z,98616.57
2022-08-10T11:36:29.358Z,98617.86
2022-08-10T11:38:30.251Z,98617.75
2022-08-10T11:39:32.919Z,98617.48
2022-08-10T11:41:12.863Z,98621.19
2022-08-10T11:42:45.223Z,98622.84
2022-08-10T11:43:57.012Z,98619.05
2022-08-10T11:45:13.192Z,98620.13
2022-08-10T11:46:28.499Z,98619.30
2022-08-10T11:48:54.509Z,98619.08
2022-08-10T11:49:49.254Z,98619.24
2022-08-10T11:51:04.623Z,98617.52
2022-08-10T11:52:15.023Z,98619.79
2022-08-10T11:53:50.919Z,98617.17
2022-08-10T11:55:00.128Z,98614.64
2022-08-10T11:56:12.824Z,98613.17
2022-08-10T11:57:21.252Z,98610.85
2022-08-10T11:58:50.856Z,98611.48
2022-08-10T12:00:00.978Z,98606.13
2022-08-10T12:01:10.726Z,98606.17
2022-08-10T12:02:21.381Z,98606.05
2022-08-10T12:03:34.065Z,98605.23
2022-08-10T12:04:47.895Z,98608.23
2022-08-10T12:05:57.744Z,98607.14
2022-08-10T12:10:01.845Z,98608.61
2022-08-10T12:10:04.573Z,98605.10
2022-08-10T12:10:13.452Z,98606.95
2022-08-10T12:11:28.661Z,98606.36
2022-08-10T12:12:39.326Z,98606.98
2022-08-10T12:14:22.331Z,98608.84
2022-08-10T12:15:36.616Z,98610.09
2022-08-10T12:16:47.965Z,98611.77
2022-08-10T12:17:58.386Z,98609.93
2022-08-10T12:19:16.505Z,98614.24
2022-08-10T12:20:37.961Z,98613.45
2022-08-10T12:21:55.223Z,98612.24
2022-08-10T12:23:26.738Z,98616.42
2022-08-10T12:24:44.840Z,98614.80
2022-08-10T12:26:00.266Z,98613.38
2022-08-10T12:27:18.735Z,98614.14
2022-08-10T12:28:50.002Z,98614.05
2022-08-10T12:30:07.339Z,98617.06
2022-08-10T12:31:15.904Z,98619.88
2022-08-10T12:32:45.774Z,98620.33
2022-08-10T12:34:16.435Z,98619.59
2022-08-10T12:36:16.770Z,98623.13
2022-08-10T12:37:26.085Z,98625.25
2022-08-10T12:38:56.382Z,98626.08
2022-08-10T12:42:02.146Z,98635.16
2022-08-10T12:44:07.612Z,98631.72
2022-08-10T12:44:59.565Z,98631.11
2022-08-10T12:46:37.789Z,98627.27
2022-08-10T12:48:31.134Z,98631.76
2022-08-10T12:50:21.639Z,98632.27
2022-08-10T12:51:31.856Z,98633.69
2022-08-10T12:53:06.497Z,98631.84
2022-08-10T12:54:16.734Z,98632.92
2022-08-10T12:55:43.701Z,98633.25
2022-08-10T12:57:00.505Z,98633.75
2022-08-10T12:58:58.261Z,98639.14
2022-08-10T12:59:43.416Z,98642.92
2022-08-10T13:01:14.700Z,98648.52
2022-08-10T13:02:32.022Z,98652.39
2022-08-10T13:04:20.438Z,98659.22
2022-08-10T13:05:09.801Z,98657.45
2022-08-10T13:06:16.765Z,98657.14
2022-08-10T13:08:24.432Z,98663.14
2022-08-10T13:09:11.897Z,98664.02
2022-08-10T13:10:19.662Z,98662.84
2022-08-10T13:12:36.853Z,98664.19
2022-08-10T13:12:56.765Z,98667.19
2022-08-10T13:14:11.128Z,98668.23
2022-08-10T13:15:25.284Z,98670.48
2022-08-10T13:16:46.237Z,98673.27
2022-08-10T13:17:54.357Z,98680.91
2022-08-10T13:19:03.775Z,98684.19
2022-08-10T13:20:21.613Z,98685.49
2022-08-10T13:21:31.317Z,98690.41
2022-08-10T13:22:38.516Z,98691.39
2022-08-10T13:24:03.527Z,98692.02
2022-08-10T13:25:12.716Z,98692.79
2022-08-10T13:26:22.456Z,98695.65
2022-08-10T13:28:00.590Z,98694.20
2022-08-10T13:29:03.781Z,98697.86
2022-08-10T13:30:33.657Z,98697.05
2022-08-10T13:32:04.254Z,98700.40
2022-08-10T13:34:39.096Z,98698.34
2022-08-10T13:34:48.016Z,98699.30
2022-08-10T13:36:02.030Z,98698.27
2022-08-10T13:37:12.083Z,98701.47
2022-08-10T13:38:22.159Z,98700.97
2022-08-10T13:39:59.732Z,98701.88
2022-08-10T13:41:05.404Z,98701.48
2022-08-10T13:42:14.654Z,98700.80
2022-08-10T13:43:22.913Z,98703.26
2022-08-10T13:44:33.231Z,98702.20
2022-08-10T13:45:47.868Z,98701.92
2022-08-10T13:46:59.413Z,98702.09
2022-08-10T13:48:25.003Z,98702.23
2022-08-10T13:49:33.134Z,98704.90
2022-08-10T13:50:41.592Z,98702.20
2022-08-10T13:51:56.726Z,98700.45
2022-08-10T13:53:14.809Z,98702.48
2022-08-10T13:54:30.095Z,98703.77
2022-08-10T13:55:53.481Z,98701.55
2022-08-10T13:57:05.940Z,98701.13
2022-08-10T13:58:14.948Z,98704.02
2022-08-10T13:59:23.866Z,98702.86
2022-08-10T14:00:52.187Z,98707.85
2022-08-10T14:02:00.636Z,98711.77
2022-08-10T14:03:19.314Z,98715.11
2022-08-10T14:04:27.345Z,98715.15
2022-08-10T14:05:36.649Z,98715.81
2022-08-10T14:06:45.175Z,98716.48
2022-08-10T14:08:00.887Z,98716.48
2022-08-10T14:09:12.033Z,98718.89
2022-08-10T14:10:19.636Z,98717.19
2022-08-10T14:11:49.701Z,98717.45
2022-08-10T14:12:58.434Z,98716.28
2022-08-10T14:14:26.589Z,98716.22
2022-08-10T14:15:36.336Z,98716.64
2022-08-10T14:16:45.481Z,98715.47
2022-08-10T14:17:57.450Z,98716.48
2022-08-10T14:19:07.140Z,98714.92
2022-08-10T14:20:20.860Z,98716.34
2022-08-10T14:21:30.202Z,98714.52
2022-08-10T14:22:38.493Z,98716.73
2022-08-10T14:23:53.144Z,98719.40
2022-08-10T14:25:10.366Z,98717.60
2022-08-10T14:26:42.257Z,98717.86
2022-08-10T14:28:03.180Z,98719.73
2022-08-10T14:29:19.781Z,98715.60
2022-08-10T14:30:30.713Z,98718.48
2022-08-10T14:31:39.532Z,98717.98
2022-08-10T14:33:08.738Z,98724.16
2022-08-10T14:34:19.209Z,98724.46
2022-08-10T14:36:18.773Z,98724.38
2022-08-10T14:37:04.017Z,98727.53
2022-08-10T14:38:15.199Z,98729.65
2022-08-10T14:39:36.690Z,98731.26
2022-08-10T14:40:51.773Z,98729.41
2022-08-10T14:42:08.333Z,98731.16
2022-08-10T14:43:42.571Z,98729.41
2022-08-10T14:44:52.247Z,98733.52
2022-08-10T14:46:11.040Z,98733.19
2022-08-10T14:47:53.623Z,98736.66
2022-08-10T14:48:49.868Z,98742.52
2022-08-10T14:50:04.980Z,98739.30
2022-08-10T14:51:17.070Z,98742.23
2022-08-10T14:52:26.869Z,98740.52
2022-08-10T14:53:37.307Z,98741.39
2022-08-10T14:54:46.642Z,98737.88
2022-08-10T14:56:04.828Z,98736.27
2022-08-10T14:57:15.873Z,98734.35
2022-08-10T14:58:25.894Z,98735.45
2022-08-10T15:00:24.987Z,98738.94
2022-08-10T15:01:03.073Z,98743.48
2022-08-10T15:02:38.809Z,98741.81
2022-08-10T15:04:02.251Z,98743.40
2022-08-10T15:05:12.666Z,98748.23
2022-08-10T15:06:30.205Z,98744.76
2022-08-10T15:07:40.107Z,98748.91
2022-08-10T15:08:49.239Z,98749.81
2022-08-10T15:10:01.047Z,98752.88
2022-08-10T15:12:13.488Z,98754.11
2022-08-10T15:12:41.882Z,98752.84
2022-08-10T15:14:14.959Z,98757.52
2022-08-10T15:15:28.427Z,98756.28
2022-08-10T15:16:36.468Z,98756.66
2022-08-10T15:17:50.040Z,98758.41
2022-08-10T15:20:01.183Z,98758.27
2022-08-10T15:20:32.657Z,98761.45
2022-08-10T15:21:44.296Z,98759.65